createdAt,value
2018-08-19T00:00:28.752Z,99.90
2018-08-19T00:02:59.989Z,99.90
2018-08-19T00:05:28.414Z,99.90
2018-08-19T00:07:56.836Z,99.90
2018-08-19T00:10:42.693Z,99.90
2018-08-19T00:13:14.453Z,99.90
2018-08-19T00:15:42.694Z,99.90
2018-08-19T00:18:11.990Z,99.90
2018-08-19T00:20:40.357Z,99.90
2018-08-19T00:23:09.249Z,99.90
2018-08-19T00:25:40.174Z,99.90
2018-08-19T00:28:16.325Z,99.90
2018-08-19T00:30:44.737Z,99.90
2018-08-19T00:33:14.034Z,99.90
2018-08-19T00:35:42.456Z,99.90
2018-08-19T00:38:12.176Z,99.90
2018-08-19T00:40:41.022Z,99.90
2018-08-19T00:43:09.499Z,99.90
2018-08-19T00:45:38.008Z,99.90
2018-08-19T00:48:06.439Z,99.90
2018-08-19T00:50:34.817Z,99.90
2018-08-19T00:53:03.209Z,99.90
2018-08-19T00:55:38.374Z,99.90
2018-08-19T00:58:13.409Z,99.90
2018-08-19T01:00:41.710Z,99.90
2018-08-19T01:03:10.949Z,99.90
2018-08-19T01:05:39.275Z,99.90
2018-08-19T01:08:08.643Z,99.90
2018-08-19T01:10:37.751Z,99.90
2018-08-19T01:13:06.125Z,99.90
2018-08-19T01:15:34.425Z,99.90
2018-08-19T01:18:02.754Z,99.90
2018-08-19T01:20:31.262Z,99.90
2018-08-19T01:22:59.550Z,99.90
2018-08-19T01:25:27.842Z,99.90
2018-08-19T01:27:56.069Z,99.90
2018-08-19T01:30:25.957Z,99.90
2018-08-19T01:32:54.336Z,99.90
2018-08-19T01:35:29.036Z,99.90
2018-08-19T01:37:57.386Z,99.90
2018-08-19T01:40:25.778Z,99.90
2018-08-19T01:42:54.144Z,99.90
2018-08-19T01:45:22.545Z,99.90
2018-08-19T01:47:50.823Z,99.90
2018-08-19T01:50:19.229Z,99.90
2018-08-19T01:52:48.798Z,99.90
2018-08-19T01:55:17.426Z,99.90
2018-08-19T01:57:47.018Z,99.90
2018-08-19T02:00:16.184Z,99.90
2018-08-19T02:02:55.040Z,99.90
2018-08-19T02:05:23.922Z,99.90
2018-08-19T02:07:53.654Z,99.90
2018-08-19T02:10:23.505Z,99.90
2018-08-19T02:12:52.472Z,99.90
2018-08-19T02:15:22.015Z,99.90
2018-08-19T02:17:56.496Z,99.90
2018-08-19T02:20:26.380Z,99.90
2018-08-19T02:22:58.442Z,99.90
2018-08-19T02:25:28.605Z,99.90
2018-08-19T02:27:56.839Z,99.90
2018-08-19T02:30:25.357Z,99.90
2018-08-19T02:32:54.155Z,99.90
2018-08-19T02:35:22.536Z,99.90
2018-08-19T02:37:50.793Z,99.90
2018-08-19T02:40:24.308Z,99.90
2018-08-19T02:42:52.720Z,99.90
2018-08-19T02:45:21.049Z,99.90
2018-08-19T02:47:49.373Z,99.90
2018-08-19T02:50:17.822Z,99.90
2018-08-19T02:52:46.090Z,99.90
2018-08-19T02:55:14.609Z,99.90
2018-08-19T02:57:43.055Z,99.90
2018-08-19T03:00:12.008Z,99.90
2018-08-19T03:02:41.565Z,99.90
2018-08-19T03:05:11.721Z,99.90
2018-08-19T03:07:40.069Z,99.90
2018-08-19T03:10:10.628Z,99.90
2018-08-19T03:12:39.421Z,99.90
2018-08-19T03:15:09.069Z,99.90
2018-08-19T03:17:37.366Z,99.90
2018-08-19T03:20:07.929Z,99.90
2018-08-19T03:22:36.221Z,99.90
2018-08-19T03:25:04.913Z,99.90
2018-08-19T03:27:33.274Z,99.90
2018-08-19T03:30:02.984Z,99.90
2018-08-19T03:32:31.560Z,99.90
2018-08-19T03:35:07.629Z,99.90
2018-08-19T03:37:37.060Z,99.90
2018-08-19T03:40:05.989Z,99.90
2018-08-19T03:42:34.384Z,99.90
2018-08-19T03:45:07.986Z,99.90
2018-08-19T03:47:36.363Z,99.90
2018-08-19T03:50:10.255Z,99.90
2018-08-19T03:52:38.673Z,99.90
2018-08-19T03:55:07.394Z,99.90
2018-08-19T03:57:35.847Z,99.90
2018-08-19T04:00:04.642Z,99.90
2018-08-19T04:02:33.041Z,99.90
2018-08-19T04:05:01.384Z,99.90
2018-08-19T04:07:29.800Z,99.90
2018-08-19T04:09:58.080Z,99.90
2018-08-19T04:12:26.356Z,99.90
2018-08-19T04:14:54.688Z,99.90
2018-08-19T04:17:23.292Z,99.90
2018-08-19T04:19:51.573Z,99.90
2018-08-19T04:22:19.897Z,99.90
2018-08-19T04:24:48.109Z,99.90
2018-08-19T04:27:16.458Z,99.90
2018-08-19T04:29:44.879Z,99.90
2018-08-19T04:32:18.928Z,99.90
2018-08-19T04:34:47.307Z,99.90
2018-08-19T04:37:15.733Z,99.90
2018-08-19T04:39:44.120Z,99.90
2018-08-19T04:42:12.482Z,99.90
2018-08-19T04:44:40.752Z,99.90
2018-08-19T04:47:21.168Z,99.90
2018-08-19T04:49:51.185Z,99.90
2018-08-19T04:52:21.050Z,99.90
2018-08-19T04:54:49.641Z,99.90
2018-08-19T04:57:18.825Z,99.90
2018-08-19T04:59:49.001Z,99.90
2018-08-19T05:02:17.699Z,99.90
2018-08-19T05:04:46.136Z,99.90
2018-08-19T05:07:14.548Z,99.90
2018-08-19T05:09:42.911Z,99.90
2018-08-19T05:12:11.321Z,99.90
2018-08-19T05:14:39.941Z,99.90
2018-08-19T05:17:08.222Z,99.90
2018-08-19T05:19:36.668Z,99.90
2018-08-19T05:22:10.458Z,99.90
2018-08-19T05:24:39.296Z,99.90
2018-08-19T05:27:08.967Z,99.90
2018-08-19T05:29:38.402Z,99.90
2018-08-19T05:32:06.834Z,99.90
2018-08-19T05:34:37.063Z,99.90
2018-08-19T05:37:05.426Z,99.90
2018-08-19T05:39:33.721Z,99.90
2018-08-19T05:42:17.038Z,99.90
2018-08-19T05:44:45.265Z,99.90
2018-08-19T05:47:22.915Z,99.90
2018-08-19T05:49:51.450Z,99.90
2018-08-19T05:52:21.118Z,99.90
2018-08-19T05:54:53.754Z,99.90
2018-08-19T05:57:22.035Z,99.90
2018-08-19T05:59:51.482Z,99.90
2018-08-19T06:02:28.066Z,99.90
2018-08-19T06:04:56.339Z,99.90
2018-08-19T06:07:24.700Z,99.90
2018-08-19T06:09:52.996Z,99.90
2018-08-19T06:12:21.250Z,99.90
2018-08-19T06:14:49.507Z,99.90
2018-08-19T06:17:17.718Z,99.90
2018-08-19T06:19:46.017Z,99.90
2018-08-19T06:22:14.509Z,99.90
2018-08-19T06:24:42.926Z,99.90
2018-08-19T06:27:11.154Z,99.90
2018-08-19T06:29:49.451Z,99.90
2018-08-19T06:32:37.688Z,99.90
2018-08-19T06:35:06.485Z,99.90
2018-08-19T06:37:34.728Z,99.90
2018-08-19T06:40:02.917Z,99.90
2018-08-19T06:42:31.064Z,99.90
2018-08-19T06:44:59.265Z,99.90
2018-08-19T06:47:27.430Z,99.90
2018-08-19T06:49:57.946Z,99.90
2018-08-19T06:52:26.536Z,99.90
2018-08-19T06:54:54.927Z,99.90
2018-08-19T06:57:23.094Z,99.90
2018-08-19T06:59:51.255Z,99.90
2018-08-19T07:02:21.949Z,99.90
2018-08-19T07:04:50.099Z,99.90
2018-08-19T07:07:20.405Z,99.90
2018-08-19T07:09:48.575Z,99.90
2018-08-19T07:12:21.566Z,99.90
2018-08-19T07:14:49.997Z,99.90
2018-08-19T07:17:18.889Z,99.90
2018-08-19T07:19:47.289Z,99.90
2018-08-19T07:22:22.239Z,99.90
2018-08-19T07:24:50.354Z,99.90
2018-08-19T07:27:18.485Z,99.90
2018-08-19T07:29:46.703Z,99.90
2018-08-19T07:32:14.813Z,99.90
2018-08-19T07:34:42.949Z,99.90
2018-08-19T07:37:11.132Z,99.90
2018-08-19T07:39:45.922Z,99.90
2018-08-19T07:42:14.213Z,99.90
2018-08-19T07:44:42.342Z,99.90
2018-08-19T07:47:10.473Z,99.90
2018-08-19T07:49:38.667Z,99.90
2018-08-19T07:52:07.103Z,99.90
2018-08-19T07:54:35.269Z,99.90
2018-08-19T07:57:13.098Z,99.90
2018-08-19T07:59:42.173Z,99.90
2018-08-19T08:02:10.348Z,99.30
2018-08-19T08:04:40.716Z,98.60
2018-08-19T08:07:08.865Z,98.30
2018-08-19T08:09:37.065Z,98.10
2018-08-19T08:12:05.261Z,97.00
2018-08-19T08:14:33.421Z,96.50
2018-08-19T08:17:01.606Z,96.60
2018-08-19T08:19:29.706Z,96.50
2018-08-19T08:22:06.869Z,96.70
2018-08-19T08:24:35.003Z,96.50
2018-08-19T08:27:05.403Z,96.00
2018-08-19T08:29:33.534Z,96.20
2018-08-19T08:32:01.655Z,95.20
2018-08-19T08:34:29.817Z,95.10
2018-08-19T08:37:01.381Z,95.00
2018-08-19T08:39:30.261Z,93.90
2018-08-19T08:41:58.982Z,94.20
2018-08-19T08:44:27.566Z,94.00
2018-08-19T08:46:55.993Z,92.40
2018-08-19T08:49:25.178Z,91.90
2018-08-19T08:51:53.339Z,92.20
2018-08-19T08:54:21.639Z,93.20
2018-08-19T08:56:49.762Z,92.60
2018-08-19T08:59:17.877Z,93.30
2018-08-19T09:01:46.028Z,92.30
2018-08-19T09:04:14.162Z,92.10
2018-08-19T09:06:42.305Z,91.90
2018-08-19T09:09:10.513Z,90.60
2018-08-19T09:11:38.628Z,89.90
2018-08-19T09:14:06.810Z,89.80
2018-08-19T09:16:34.973Z,89.30
2018-08-19T09:19:03.128Z,86.70
2018-08-19T09:21:31.373Z,84.70
2018-08-19T09:23:59.545Z,84.00
2018-08-19T09:26:27.686Z,83.90
2018-08-19T09:28:55.801Z,83.80
2018-08-19T09:31:23.937Z,84.30
2018-08-19T09:33:52.345Z,84.60
2018-08-19T09:36:20.486Z,79.40
2018-08-19T09:38:48.641Z,80.80
2018-08-19T09:41:16.774Z,78.70
2018-08-19T09:43:44.899Z,78.40
2018-08-19T09:46:13.018Z,79.10
2018-08-19T09:48:41.170Z,77.10
2018-08-19T09:51:14.961Z,74.60
2018-08-19T09:53:43.080Z,76.60
2018-08-19T09:56:11.757Z,74.10
2018-08-19T09:58:40.517Z,75.20
2018-08-19T10:01:14.476Z,73.00
2018-08-19T10:03:42.593Z,71.40
2018-08-19T10:06:10.733Z,73.20
2018-08-19T10:08:39.150Z,67.60
2018-08-19T10:11:08.371Z,68.50
2018-08-19T10:13:36.548Z,68.50
2018-08-19T10:16:04.854Z,68.40
2018-08-19T10:18:33.785Z,68.00
2018-08-19T10:21:06.185Z,70.40
2018-08-19T10:23:34.337Z,70.30
2018-08-19T10:26:02.496Z,67.00
2018-08-19T10:28:30.616Z,67.00
2018-08-19T10:30:59.344Z,67.10
2018-08-19T10:33:27.466Z,66.80
2018-08-19T10:35:57.988Z,67.00
2018-08-19T10:38:26.110Z,68.70
2018-08-19T10:41:03.503Z,67.20
2018-08-19T10:43:31.690Z,68.00
2018-08-19T10:45:59.828Z,67.80
2018-08-19T10:48:29.030Z,66.10
2018-08-19T10:50:57.170Z,67.00
2018-08-19T10:53:28.194Z,70.10
2018-08-19T10:55:59.647Z,65.70
2018-08-19T10:58:27.832Z,65.90
2018-08-19T11:00:55.901Z,70.00
2018-08-19T11:03:24.036Z,65.20
2018-08-19T11:05:53.597Z,65.30
2018-08-19T11:08:21.713Z,65.70
2018-08-19T11:10:49.948Z,65.20
2018-08-19T11:13:21.914Z,66.50
2018-08-19T11:15:51.564Z,67.70
2018-08-19T11:18:35.341Z,65.40
2018-08-19T11:21:05.725Z,68.00
2018-08-19T11:23:38.246Z,68.90
2018-08-19T11:26:06.969Z,68.60
2018-08-19T11:28:40.907Z,69.30
2018-08-19T11:31:20.865Z,68.00
2018-08-19T11:33:49.795Z,68.80
2018-08-19T11:36:17.984Z,66.20
2018-08-19T11:38:47.937Z,65.10
2018-08-19T11:41:16.358Z,64.30
2018-08-19T11:43:45.574Z,66.70
2018-08-19T11:46:13.997Z,65.40
2018-08-19T11:48:42.638Z,65.40
2018-08-19T11:51:10.963Z,66.00
2018-08-19T11:53:39.106Z,64.90
2018-08-19T11:56:07.329Z,66.70
2018-08-19T11:58:44.273Z,66.70
2018-08-19T12:01:13.340Z,63.70
2018-08-19T12:03:56.173Z,63.80
2018-08-19T12:06:25.920Z,62.60
2018-08-19T12:08:55.819Z,64.00
2018-08-19T12:11:28.806Z,65.30
2018-08-19T12:13:57.056Z,65.30
2018-08-19T12:16:27.986Z,64.30
2018-08-19T12:19:00.174Z,65.30
2018-08-19T12:21:29.738Z,65.70
2018-08-19T12:24:16.952Z,66.20
2018-08-19T12:26:45.234Z,65.30
2018-08-19T12:29:13.595Z,63.20
2018-08-19T12:31:41.730Z,63.50
2018-08-19T12:34:10.035Z,63.30
2018-08-19T12:36:38.176Z,62.70
2018-08-19T12:39:09.835Z,61.60
2018-08-19T12:41:43.612Z,62.20
2018-08-19T12:44:11.742Z,62.70
2018-08-19T12:46:41.670Z,63.50
2018-08-19T12:49:10.154Z,63.30
2018-08-19T12:51:38.267Z,61.90
2018-08-19T12:54:06.394Z,62.30
2018-08-19T12:56:34.524Z,62.40
2018-08-19T12:59:02.677Z,61.70
2018-08-19T13:01:30.801Z,62.50
2018-08-19T13:03:58.947Z,61.00
2018-08-19T13:06:27.069Z,60.90
2018-08-19T13:08:55.191Z,61.00
2018-08-19T13:11:23.318Z,61.40
2018-08-19T13:13:51.478Z,60.60
2018-08-19T13:16:19.697Z,60.60
2018-08-19T13:18:47.863Z,62.30
2018-08-19T13:21:17.470Z,61.50
2018-08-19T13:23:45.676Z,60.90
2018-08-19T13:26:13.778Z,61.90
2018-08-19T13:28:47.285Z,63.20
2018-08-19T13:31:15.893Z,62.80
2018-08-19T13:33:44.009Z,62.50
2018-08-19T13:36:12.140Z,62.50
2018-08-19T13:38:40.274Z,62.40
2018-08-19T13:41:09.105Z,61.40
2018-08-19T13:43:38.010Z,62.90
2018-08-19T13:46:06.314Z,63.40
2018-08-19T13:48:34.773Z,63.40
2018-08-19T13:51:02.948Z,64.00
2018-08-19T13:53:31.099Z,62.50
2018-08-19T13:55:59.245Z,63.30
2018-08-19T13:58:27.411Z,61.80
2018-08-19T14:00:55.530Z,62.10
2018-08-19T14:03:23.683Z,63.50
2018-08-19T14:05:51.850Z,62.90
2018-08-19T14:08:20.033Z,62.90
2018-08-19T14:10:48.233Z,62.50
2018-08-19T14:13:16.400Z,63.00
2018-08-19T14:15:44.518Z,63.70
2018-08-19T14:18:13.099Z,62.90
2018-08-19T14:20:41.220Z,63.50
2018-08-19T14:23:09.321Z,63.00
2018-08-19T14:25:37.435Z,63.00
2018-08-19T14:28:05.576Z,61.60
2018-08-19T14:30:33.736Z,63.40
2018-08-19T14:33:01.854Z,61.60
2018-08-19T14:35:30.033Z,60.80
2018-08-19T14:37:58.186Z,61.70
2018-08-19T14:40:26.513Z,61.60
2018-08-19T14:42:54.476Z,62.00
2018-08-19T14:45:22.692Z,61.30
2018-08-19T14:47:50.870Z,61.60
2018-08-19T14:50:20.166Z,61.50
2018-08-19T14:52:49.941Z,61.00
2018-08-19T14:55:18.099Z,62.00
2018-08-19T14:57:46.240Z,61.90
2018-08-19T15:00:16.598Z,62.30
2018-08-19T15:02:44.711Z,60.20
2018-08-19T15:05:18.349Z,62.20
2018-08-19T15:07:46.909Z,61.10
2018-08-19T15:10:19.442Z,62.00
2018-08-19T15:12:47.630Z,61.40
2018-08-19T15:15:15.757Z,62.10
2018-08-19T15:17:49.258Z,63.00
2018-08-19T15:20:21.697Z,63.30
2018-08-19T15:22:49.961Z,63.10
2018-08-19T15:25:18.204Z,63.40
2018-08-19T15:27:51.902Z,63.10
2018-08-19T15:30:25.565Z,62.60
2018-08-19T15:32:54.138Z,62.70
2018-08-19T15:35:21.909Z,63.10
2018-08-19T15:37:50.127Z,63.50
2018-08-19T15:40:29.782Z,62.30
2018-08-19T15:42:57.926Z,61.60
2018-08-19T15:45:26.090Z,61.10
2018-08-19T15:47:54.265Z,60.90
2018-08-19T15:50:22.416Z,61.90
2018-08-19T15:52:51.054Z,61.60
2018-08-19T15:55:19.181Z,61.10
2018-08-19T15:57:47.341Z,61.70
2018-08-19T16:00:15.448Z,62.50
2018-08-19T16:02:43.572Z,61.90
2018-08-19T16:05:15.259Z,61.50
2018-08-19T16:07:43.782Z,61.80
2018-08-19T16:10:13.161Z,60.30
2018-08-19T16:12:47.073Z,60.00
2018-08-19T16:15:20.713Z,60.10
2018-08-19T16:17:48.864Z,60.20
2018-08-19T16:20:17.008Z,60.70
2018-08-19T16:22:45.144Z,60.80
2018-08-19T16:25:13.264Z,59.80
2018-08-19T16:27:41.441Z,60.40
2018-08-19T16:30:10.622Z,61.00
2018-08-19T16:32:38.781Z,60.10
2018-08-19T16:35:06.895Z,60.40
2018-08-19T16:37:35.023Z,60.60
2018-08-19T16:40:03.356Z,60.90
2018-08-19T16:42:31.478Z,61.30
2018-08-19T16:44:59.671Z,61.10
2018-08-19T16:47:28.117Z,61.60
2018-08-19T16:49:56.237Z,61.40
2018-08-19T16:52:24.402Z,61.40
2018-08-19T16:54:52.567Z,61.50
2018-08-19T16:57:20.839Z,61.00
2018-08-19T16:59:48.881Z,60.70
2018-08-19T17:02:17.009Z,60.90
2018-08-19T17:04:45.149Z,61.20
2018-08-19T17:07:13.327Z,61.10
2018-08-19T17:09:41.959Z,60.70
2018-08-19T17:12:10.062Z,61.10
2018-08-19T17:14:38.289Z,60.90
2018-08-19T17:17:06.444Z,61.20
2018-08-19T17:19:34.585Z,61.60
2018-08-19T17:22:06.739Z,61.90
2018-08-19T17:24:34.861Z,62.10
2018-08-19T17:27:10.161Z,61.90
2018-08-19T17:29:38.278Z,61.90
2018-08-19T17:32:06.389Z,61.90
2018-08-19T17:34:34.500Z,62.10
2018-08-19T17:37:02.601Z,62.10
2018-08-19T17:39:31.810Z,62.80
2018-08-19T17:41:59.837Z,62.70
2018-08-19T17:44:27.977Z,62.80
2018-08-19T17:46:56.981Z,63.50
2018-08-19T17:49:32.601Z,63.30
2018-08-19T17:52:01.241Z,63.60
2018-08-19T17:54:30.665Z,63.60
2018-08-19T17:57:00.178Z,64.10
2018-08-19T17:59:28.362Z,64.40
2018-08-19T18:01:56.429Z,65.10
2018-08-19T18:04:27.865Z,65.20
2018-08-19T18:06:56.021Z,64.80
2018-08-19T18:09:24.150Z,64.80
2018-08-19T18:11:59.481Z,65.40
2018-08-19T18:14:28.521Z,65.70
2018-08-19T18:16:56.638Z,65.70
2018-08-19T18:19:24.768Z,65.30
2018-08-19T18:21:52.901Z,65.50
2018-08-19T18:24:21.078Z,65.70
2018-08-19T18:26:49.410Z,65.60
2018-08-19T18:29:17.970Z,65.90
2018-08-19T18:31:48.997Z,66.20
2018-08-19T18:34:17.234Z,66.30
2018-08-19T18:36:45.278Z,66.40
2018-08-19T18:39:13.405Z,66.60
2018-08-19T18:41:44.526Z,66.70
2018-08-19T18:44:14.026Z,66.80
2018-08-19T18:46:42.129Z,66.70
2018-08-19T18:49:12.986Z,67.10
2018-08-19T18:51:44.155Z,67.60
2018-08-19T18:54:21.937Z,67.30
2018-08-19T18:56:50.124Z,67.30
2018-08-19T18:59:18.268Z,67.60
2018-08-19T19:01:46.380Z,67.30
2018-08-19T19:04:14.535Z,67.90
2018-08-19T19:06:42.647Z,68.00
2018-08-19T19:09:11.761Z,69.00
2018-08-19T19:11:39.872Z,68.90
2018-08-19T19:14:13.728Z,69.80
2018-08-19T19:16:41.880Z,70.00
2018-08-19T19:19:10.030Z,70.30
2018-08-19T19:21:41.385Z,70.60
2018-08-19T19:24:09.525Z,71.30
2018-08-19T19:26:41.868Z,72.20
2018-08-19T19:29:16.173Z,71.60
2018-08-19T19:31:44.337Z,71.80
2018-08-19T19:34:15.084Z,72.70
2018-08-19T19:36:45.350Z,73.40
2018-08-19T19:39:16.685Z,73.90
2018-08-19T19:41:45.230Z,74.20
2018-08-19T19:44:24.618Z,75.40
2018-08-19T19:46:53.500Z,76.70
2018-08-19T19:49:22.173Z,77.70
2018-08-19T19:51:55.590Z,77.40
2018-08-19T19:54:23.700Z,77.20
2018-08-19T19:56:51.862Z,77.10
2018-08-19T19:59:24.218Z,77.40
2018-08-19T20:01:52.469Z,77.80
2018-08-19T20:04:20.567Z,78.60
2018-08-19T20:06:48.717Z,78.50
2018-08-19T20:09:16.860Z,79.10
2018-08-19T20:11:45.010Z,79.80
2018-08-19T20:14:13.126Z,81.30
2018-08-19T20:16:41.266Z,81.10
2018-08-19T20:19:09.417Z,81.00
2018-08-19T20:21:37.559Z,81.50
2018-08-19T20:24:05.696Z,81.60
2018-08-19T20:26:33.821Z,81.50
2018-08-19T20:29:02.913Z,81.50
2018-08-19T20:31:31.033Z,82.70
2018-08-19T20:33:59.225Z,82.30
2018-08-19T20:36:27.336Z,83.20
2018-08-19T20:38:55.445Z,83.10
2018-08-19T20:41:23.702Z,83.60
2018-08-19T20:43:51.883Z,83.70
2018-08-19T20:46:20.138Z,83.90
2018-08-19T20:48:48.884Z,84.50
2018-08-19T20:51:17.055Z,84.00
2018-08-19T20:53:45.274Z,84.50
2018-08-19T20:56:13.441Z,84.50
2018-08-19T20:58:41.582Z,84.50
2018-08-19T21:01:16.048Z,84.60
2018-08-19T21:03:44.355Z,85.00
2018-08-19T21:06:13.476Z,84.80
2018-08-19T21:08:41.605Z,84.80
2018-08-19T21:11:09.795Z,85.00
2018-08-19T21:13:38.029Z,85.30
2018-08-19T21:16:06.144Z,85.80
2018-08-19T21:18:34.321Z,86.20
2018-08-19T21:21:02.474Z,86.50
2018-08-19T21:23:30.606Z,86.90
2018-08-19T21:26:00.960Z,86.90
2018-08-19T21:28:29.090Z,87.20
2018-08-19T21:30:59.006Z,87.70
2018-08-19T21:33:27.158Z,88.20
2018-08-19T21:35:56.277Z,88.00
2018-08-19T21:38:24.809Z,88.00
2018-08-19T21:40:54.505Z,88.10
2018-08-19T21:43:26.145Z,88.70
2018-08-19T21:45:54.309Z,88.80
2018-08-19T21:48:22.499Z,89.10
2018-08-19T21:50:52.117Z,90.00
2018-08-19T21:53:20.498Z,90.30
2018-08-19T21:55:50.561Z,90.50
2018-08-19T21:58:18.906Z,90.90
2018-08-19T22:00:52.648Z,91.40
2018-08-19T22:03:26.213Z,91.40
2018-08-19T22:05:54.373Z,91.50
2018-08-19T22:08:24.093Z,91.90
2018-08-19T22:10:52.246Z,92.10
2018-08-19T22:13:20.441Z,92.40
2018-08-19T22:15:48.861Z,92.20
2018-08-19T22:18:18.398Z,92.40
2018-08-19T22:21:05.856Z,92.60
2018-08-19T22:23:39.390Z,92.90
2018-08-19T22:26:08.358Z,93.00
2018-08-19T22:28:36.562Z,93.30
2018-08-19T22:31:17.263Z,93.60
2018-08-19T22:33:47.982Z,93.80
2018-08-19T22:36:16.807Z,93.90
2018-08-19T22:38:45.031Z,94.10
2018-08-19T22:41:13.287Z,94.20
2018-08-19T22:43:41.595Z,94.40
2018-08-19T22:46:10.341Z,94.80
2018-08-19T22:48:42.706Z,95.00
2018-08-19T22:51:12.152Z,95.20
2018-08-19T22:53:40.376Z,95.40
2018-08-19T22:56:08.669Z,95.60
2018-08-19T22:58:37.300Z,95.70
2018-08-19T23:01:06.123Z,96.10
2018-08-19T23:03:35.150Z,96.20
2018-08-19T23:06:03.852Z,96.50
2018-08-19T23:08:33.735Z,96.70
2018-08-19T23:11:03.252Z,96.70
2018-08-19T23:13:42.686Z,96.80
2018-08-19T23:16:12.083Z,97.00
2018-08-19T23:18:41.158Z,97.30
2018-08-19T23:21:10.094Z,97.40
2018-08-19T23:23:38.467Z,97.60
2018-08-19T23:26:06.879Z,97.80
2018-08-19T23:28:35.113Z,98.10
2018-08-19T23:31:03.449Z,98.10
2018-08-19T23:33:31.810Z,98.10
2018-08-19T23:36:00.162Z,98.40
2018-08-19T23:38:28.442Z,98.50
2018-08-19T23:40:56.753Z,98.60
2018-08-19T23:43:25.036Z,98.60
2018-08-19T23:45:53.293Z,98.80
2018-08-19T23:48:21.517Z,98.80
2018-08-19T23:50:49.761Z,99.20
2018-08-19T23:53:18.034Z,99.30
2018-08-19T23:55:46.411Z,99.40
2018-08-19T23:58:14.982Z,99.70
